createdAt,value
2023-05-17T00:04:04.597Z,8.80
2023-05-17T00:09:07.721Z,8.98
2023-05-17T00:14:10.431Z,9.27
2023-05-17T00:19:14.975Z,9.38
2023-05-17T00:24:18.967Z,8.70
2023-05-17T00:29:21.817Z,10.57
2023-05-17T00:34:25.985Z,9.40
2023-05-17T00:39:28.693Z,10.32
2023-05-17T00:44:32.087Z,9.43
2023-05-17T00:49:40.107Z,9.75
2023-05-17T00:54:43.931Z,9.93
2023-05-17T00:59:48.739Z,10.20
2023-05-17T01:04:53.626Z,9.48
2023-05-17T01:09:59.268Z,8.30
2023-05-17T01:15:13.116Z,8.80
2023-05-17T01:20:26.244Z,8.25
2023-05-17T01:25:42.154Z,9.15
2023-05-17T01:30:48.522Z,8.32
2023-05-17T01:35:54.218Z,8.98
2023-05-17T01:41:06.333Z,8.30
2023-05-17T01:46:16.919Z,8.73
2023-05-17T01:51:22.087Z,8.32
2023-05-17T01:56:29.873Z,9.20
2023-05-17T02:01:36.209Z,9.93
2023-05-17T02:06:39.136Z,8.73
2023-05-17T02:11:42.202Z,9.32
2023-05-17T02:16:47.569Z,9.55
2023-05-17T02:21:50.329Z,8.65
2023-05-17T02:26:53.243Z,9.47
2023-05-17T02:31:58.526Z,10.10
2023-05-17T02:37:01.553Z,10.10
2023-05-17T02:42:05.817Z,10.18
2023-05-17T02:47:10.097Z,9.98
2023-05-17T02:52:12.790Z,9.95
2023-05-17T02:57:15.611Z,9.43
2023-05-17T03:02:19.979Z,9.70
2023-05-17T03:07:22.793Z,10.18
2023-05-17T03:12:27.859Z,9.47
2023-05-17T03:17:33.573Z,10.18
2023-05-17T03:22:36.507Z,9.55
2023-05-17T03:27:39.457Z,8.13
2023-05-17T03:32:45.109Z,8.18
2023-05-17T03:37:48.231Z,8.05
2023-05-17T03:42:51.982Z,6.03
2023-05-17T03:48:00.341Z,8.48
2023-05-17T03:53:04.363Z,8.15
2023-05-17T03:58:08.437Z,7.45
2023-05-17T04:03:13.086Z,8.35
2023-05-17T04:08:15.825Z,7.82
2023-05-17T04:13:19.645Z,8.73
2023-05-17T04:18:24.814Z,7.82
2023-05-17T04:23:30.158Z,9.15
2023-05-17T04:28:35.197Z,9.52
2023-05-17T04:33:39.512Z,8.00
2023-05-17T04:38:42.430Z,8.60
2023-05-17T04:43:47.323Z,8.37
2023-05-17T04:48:51.680Z,6.55
2023-05-17T04:53:55.234Z,6.82
2023-05-17T04:58:59.232Z,5.85
2023-05-17T05:04:06.972Z,5.60
2023-05-17T05:09:10.059Z,5.60
2023-05-17T05:14:12.747Z,6.25
2023-05-17T05:19:18.277Z,6.20
2023-05-17T05:24:23.041Z,5.80
2023-05-17T05:29:26.052Z,4.75
2023-05-17T05:34:31.735Z,3.70
2023-05-17T05:39:34.512Z,4.80
2023-05-17T05:44:38.333Z,3.78
2023-05-17T05:49:42.636Z,3.13
2023-05-17T05:54:45.735Z,3.42
2023-05-17T06:04:56.719Z,2.67
2023-05-17T06:10:02.682Z,3.20
2023-05-17T06:15:07.451Z,2.67
2023-05-17T06:20:12.606Z,2.03
2023-05-17T06:25:16.897Z,2.60
2023-05-17T06:30:19.734Z,1.70
2023-05-17T06:35:23.798Z,1.80
2023-05-17T06:40:26.578Z,1.90
2023-05-17T06:45:29.450Z,1.70
2023-05-17T06:50:33.536Z,2.05
2023-05-17T06:55:36.247Z,1.77
2023-05-17T07:00:38.939Z,2.03
2023-05-17T07:05:42.969Z,1.70
2023-05-17T07:10:45.779Z,1.80
2023-05-17T07:20:52.280Z,1.63
2023-05-17T07:25:55.001Z,1.70
2023-05-17T07:30:57.621Z,2.15
2023-05-17T07:36:01.579Z,1.58
2023-05-17T07:41:09.422Z,2.00
2023-05-17T07:46:12.155Z,1.67
2023-05-17T07:51:16.346Z,1.92
2023-05-17T07:56:19.065Z,1.83
2023-05-17T08:01:23.183Z,1.65
2023-05-17T08:06:27.325Z,1.95
2023-05-17T08:11:30.021Z,1.67
2023-05-17T08:16:32.674Z,1.80
2023-05-17T08:21:37.297Z,1.35
2023-05-17T08:26:40.189Z,1.60
2023-05-17T08:31:42.854Z,1.80
2023-05-17T08:36:47.625Z,2.05
2023-05-17T08:41:50.608Z,1.70
2023-05-17T08:46:54.693Z,2.20
2023-05-17T08:52:01.710Z,1.75
2023-05-17T08:57:06.749Z,1.92
2023-05-17T09:02:11.262Z,1.55
2023-05-17T09:07:17.290Z,1.70
2023-05-17T09:12:25.401Z,1.33
2023-05-17T09:17:28.600Z,1.75
2023-05-17T09:22:32.822Z,1.85
2023-05-17T09:27:35.481Z,1.63
2023-05-17T09:37:49.300Z,1.95
2023-05-17T09:42:52.194Z,1.80
2023-05-17T09:53:00.071Z,1.83
2023-05-17T09:58:04.990Z,2.20
2023-05-17T10:03:10.148Z,2.05
2023-05-17T10:08:16.028Z,1.92
2023-05-17T10:13:24.834Z,1.67
2023-05-17T10:18:29.192Z,1.88
2023-05-17T10:23:35.466Z,1.80
2023-05-17T10:28:38.549Z,1.80
2023-05-17T10:33:42.806Z,1.52
2023-05-17T10:38:47.254Z,2.03
2023-05-17T10:43:50.664Z,2.83
2023-05-17T10:48:54.388Z,2.17
2023-05-17T10:54:12.745Z,2.28
2023-05-17T10:59:17.003Z,2.65
2023-05-17T11:04:25.797Z,2.00
2023-05-17T11:09:33.387Z,2.25
2023-05-17T11:14:49.240Z,2.15
2023-05-17T11:20:28.961Z,2.45
2023-05-17T11:25:35.750Z,2.55
2023-05-17T11:30:43.536Z,3.10
2023-05-17T11:35:50.028Z,2.08
2023-05-17T11:40:58.890Z,2.85
2023-05-17T11:46:02.464Z,2.28
2023-05-17T11:51:05.920Z,2.30
2023-05-17T11:56:11.538Z,2.45
2023-05-17T12:01:14.369Z,2.28
2023-05-17T12:16:26.500Z,1.92
2023-05-17T12:21:29.230Z,2.60
2023-05-17T12:26:33.334Z,2.55
2023-05-17T12:31:39.276Z,2.72
2023-05-17T12:36:42.687Z,2.42
2023-05-17T12:41:48.556Z,2.20
2023-05-17T12:46:53.876Z,2.58
2023-05-17T12:51:56.863Z,2.97
2023-05-17T12:57:12.547Z,1.98
2023-05-17T13:02:16.806Z,3.20
2023-05-17T13:07:24.812Z,2.50
2023-05-17T13:12:28.915Z,2.70
2023-05-17T13:17:36.961Z,2.55
2023-05-17T13:22:42.154Z,2.50
2023-05-17T13:27:48.609Z,2.45
2023-05-17T13:32:51.908Z,2.88
2023-05-17T13:37:54.797Z,2.45
2023-05-17T13:48:01.511Z,2.78
2023-05-17T13:58:08.833Z,2.87
2023-05-17T14:03:13.091Z,2.55
2023-05-17T14:08:16.684Z,3.17
2023-05-17T14:13:20.898Z,2.47
2023-05-17T14:18:23.668Z,2.65
2023-05-17T14:28:30.209Z,2.10
2023-05-17T14:33:32.907Z,2.40
2023-05-17T14:38:35.615Z,2.05
2023-05-17T14:43:39.706Z,2.30
2023-05-17T14:48:42.368Z,2.90
2023-05-17T14:53:45.133Z,2.72
2023-05-17T14:58:49.344Z,2.92
2023-05-17T15:03:52.056Z,2.40
2023-05-17T15:13:59.033Z,2.35
2023-05-17T15:19:01.795Z,2.10
2023-05-17T15:24:05.027Z,1.98
2023-05-17T15:29:09.028Z,2.50
2023-05-17T15:34:11.832Z,2.20
2023-05-17T15:39:15.099Z,2.00
2023-05-17T15:44:19.397Z,2.33
2023-05-17T15:49:23.065Z,2.60
2023-05-17T15:54:25.814Z,2.35
2023-05-17T16:04:33.398Z,2.22
2023-05-17T16:09:36.169Z,2.47
2023-05-17T16:14:40.888Z,2.40
2023-05-17T16:19:43.719Z,2.63
2023-05-17T16:24:46.414Z,2.28
2023-05-17T16:29:50.357Z,3.28
2023-05-17T16:34:52.993Z,2.42
2023-05-17T16:39:55.798Z,2.03
2023-05-17T16:44:59.842Z,3.05
2023-05-17T16:50:02.689Z,3.08
2023-05-17T16:55:06.117Z,2.40
2023-05-17T17:00:12.216Z,2.60
2023-05-17T17:05:14.913Z,3.03
2023-05-17T17:10:17.721Z,2.33
2023-05-17T17:15:21.834Z,2.30
2023-05-17T17:20:24.996Z,1.80
2023-05-17T17:30:32.237Z,2.40
2023-05-17T17:35:35.066Z,2.17
2023-05-17T17:40:37.710Z,2.85
2023-05-17T17:45:41.666Z,2.13
2023-05-17T17:50:44.314Z,2.50
2023-05-17T17:55:46.993Z,3.08
2023-05-17T18:00:52.184Z,2.25
2023-05-17T18:05:54.909Z,2.35
2023-05-17T18:10:57.588Z,2.38
2023-05-17T18:16:01.597Z,2.70
2023-05-17T18:21:04.554Z,2.50
2023-05-17T18:26:07.532Z,2.50
2023-05-17T18:31:11.801Z,2.88
2023-05-17T18:36:14.440Z,2.80
2023-05-17T18:41:17.033Z,3.20
2023-05-17T18:46:21.457Z,2.67
2023-05-17T18:51:24.722Z,2.83
2023-05-17T18:56:28.687Z,2.92
2023-05-17T19:01:32.767Z,2.85
2023-05-17T19:06:35.390Z,3.15
2023-05-17T19:11:38.077Z,3.30
2023-05-17T19:16:42.198Z,3.53
2023-05-17T19:21:44.936Z,2.75
2023-05-17T19:26:47.720Z,2.53
2023-05-17T19:31:52.068Z,2.97
2023-05-17T19:36:54.773Z,2.72
2023-05-17T19:41:57.518Z,2.93
2023-05-17T19:47:01.674Z,2.80
2023-05-17T19:52:04.640Z,4.15
2023-05-17T19:57:07.982Z,3.20
2023-05-17T20:02:12.061Z,2.80
2023-05-17T20:07:15.281Z,2.78
2023-05-17T20:12:17.950Z,3.03
2023-05-17T20:17:21.982Z,3.00
2023-05-17T20:22:25.092Z,3.00
2023-05-17T20:27:27.772Z,3.03
2023-05-17T20:32:31.993Z,3.83
2023-05-17T20:37:34.851Z,3.28
2023-05-17T20:42:40.290Z,3.07
2023-05-17T20:47:44.476Z,2.95
2023-05-17T20:52:47.159Z,3.35
2023-05-17T20:57:50.862Z,2.60
2023-05-17T21:02:54.992Z,3.63
2023-05-17T21:07:59.745Z,3.58
2023-05-17T21:13:02.504Z,3.58
2023-05-17T21:18:06.842Z,3.67
2023-05-17T21:23:10.527Z,3.58
2023-05-17T21:33:16.998Z,3.67
2023-05-17T21:38:19.774Z,3.15
2023-05-17T21:43:22.543Z,3.70
2023-05-17T21:48:26.635Z,3.83
2023-05-17T21:53:29.312Z,3.67
2023-05-17T21:58:32.532Z,3.72
2023-05-17T22:03:36.783Z,4.30
2023-05-17T22:08:42.262Z,4.22
2023-05-17T22:13:45.991Z,4.40
2023-05-17T22:18:52.397Z,3.20
2023-05-17T22:23:56.557Z,4.05
2023-05-17T22:28:59.214Z,3.95
2023-05-17T22:34:03.205Z,3.38
2023-05-17T22:39:05.841Z,4.55
2023-05-17T22:44:08.546Z,4.18
2023-05-17T22:49:12.519Z,3.10
2023-05-17T22:54:15.124Z,3.63
2023-05-17T22:59:17.714Z,3.58
2023-05-17T23:04:26.286Z,3.60
2023-05-17T23:09:29.963Z,3.58
2023-05-17T23:14:33.005Z,3.83
2023-05-17T23:19:37.136Z,4.13
2023-05-17T23:24:39.872Z,4.05
2023-05-17T23:29:42.465Z,3.40
2023-05-17T23:34:47.290Z,3.42
2023-05-17T23:39:49.989Z,4.80
2023-05-17T23:44:52.803Z,3.97
2023-05-17T23:49:57.540Z,4.20
2023-05-17T23:55:00.196Z,4.32
